Time;durP1;ratioP1;P1;durP2;ratioP2;P2;SDS_P1;SDS_P2;PMS_P1;PMS_P2;Temp;Humidity;BMP_temperature;BMP_pressure;BME280_temperature;BME280_humidity;BME280_pressure;Samples;Min_cycle;Max_cycle;Signal;HPM_P1;HPM_P2
2022/02/18 00:00:26;;;;;;;20.93;3.30;;;8.30;99.90;;;;;;5095853;27;47603;-78
2022/02/18 00:02:53;;;;;;;24.77;4.40;;;8.40;99.90;;;;;;5096754;27;37946;-78
2022/02/18 00:05:19;;;;;;;20.27;3.37;;;8.40;99.90;;;;;;5097633;27;38269;-78
2022/02/18 00:07:45;;;;;;;19.07;2.63;;;8.40;99.90;;;;;;5099254;27;38123;-78
2022/02/18 00:10:11;;;;;;;20.87;4.13;;;8.40;99.90;;;;;;5076858;27;37020;-78
2022/02/18 00:12:37;;;;;;;21.30;2.97;;;8.40;99.90;;;;;;5101298;27;37935;-78
2022/02/18 00:15:05;;;;;;;27.03;3.90;;;8.40;99.90;;;;;;5101721;27;39925;-78
2022/02/18 00:17:31;;;;;;;21.00;3.13;;;8.40;99.90;;;;;;5082890;27;38141;-79
2022/02/18 00:19:57;;;;;;;19.13;3.60;;;8.40;99.90;;;;;;5098159;27;38091;-78
2022/02/18 00:22:24;;;;;;;18.63;2.70;;;8.40;99.90;;;;;;5097871;27;37727;-79
2022/02/18 00:24:51;;;;;;;19.67;3.20;;;8.40;99.90;;;;;;5083317;27;38552;-78
2022/02/18 00:27:17;;;;;;;21.83;3.80;;;8.40;99.90;;;;;;5098306;27;38389;-78
2022/02/18 00:29:43;;;;;;;22.43;3.67;;;8.40;99.90;;;;;;5097185;27;38824;-79
2022/02/18 00:32:09;;;;;;;15.00;3.00;;;8.30;99.90;;;;;;5092534;27;37604;-78
2022/02/18 00:34:36;;;;;;;25.13;3.30;;;8.30;99.90;;;;;;5071469;28;39873;-79
2022/02/18 00:37:03;;;;;;;25.67;4.10;;;8.30;99.90;;;;;;5077389;27;36641;-78
2022/02/18 00:39:29;;;;;;;20.87;3.83;;;8.30;99.90;;;;;;5098590;27;37853;-79
2022/02/18 00:41:56;;;;;;;31.83;3.73;;;8.30;99.90;;;;;;5076476;27;37743;-79
2022/02/18 00:44:22;;;;;;;27.20;4.60;;;8.40;99.90;;;;;;5079873;27;39688;-78
2022/02/18 00:46:50;;;;;;;23.73;4.03;;;8.40;99.90;;;;;;5074254;28;39646;-78
2022/02/18 00:49:21;;;;;;;21.60;3.90;;;8.40;99.90;;;;;;5080926;27;39048;-78
2022/02/18 00:51:47;;;;;;;24.27;3.80;;;8.40;99.90;;;;;;5079496;28;38590;-78
2022/02/18 00:54:13;;;;;;;28.20;4.03;;;8.40;99.90;;;;;;5079444;28;37545;-78
2022/02/18 00:56:40;;;;;;;29.27;4.13;;;8.50;99.90;;;;;;5082597;27;37908;-78
2022/02/18 00:59:07;;;;;;;22.63;4.10;;;8.50;99.90;;;;;;5081624;27;37901;-78
2022/02/18 01:01:34;;;;;;;23.03;4.37;;;8.50;99.90;;;;;;5083776;27;37112;-78
2022/02/18 01:04:00;;;;;;;23.63;4.07;;;8.50;99.90;;;;;;5082698;27;39311;-78
2022/02/18 01:06:27;;;;;;;21.67;3.77;;;8.50;99.90;;;;;;5090003;27;37295;-78
2022/02/18 01:08:54;;;;;;;24.53;4.27;;;8.50;99.90;;;;;;5082633;27;41544;-78
2022/02/18 01:11:20;;;;;;;28.03;5.10;;;8.50;99.90;;;;;;5082286;27;37817;-79
2022/02/18 01:13:47;;;;;;;20.43;3.63;;;8.50;99.90;;;;;;5089464;27;39756;-79
2022/02/18 01:16:14;;;;;;;20.47;3.37;;;8.50;99.90;;;;;;5086585;27;38877;-78
2022/02/18 01:18:44;;;;;;;24.57;3.30;;;8.50;99.90;;;;;;5083393;27;38140;-79
2022/02/18 01:21:10;;;;;;;17.93;4.17;;;8.50;99.90;;;;;;5089065;27;37768;-78
2022/02/18 01:23:36;;;;;;;26.93;3.60;;;8.50;99.90;;;;;;5085014;27;38648;-78
2022/02/18 01:26:03;;;;;;;28.37;3.83;;;8.50;99.90;;;;;;5076866;27;39013;-78
2022/02/18 01:28:29;;;;;;;24.40;4.23;;;8.50;99.90;;;;;;5081563;27;38904;-78
2022/02/18 01:30:56;;;;;;;25.53;5.00;;;8.50;99.90;;;;;;5075358;27;38773;-79
2022/02/18 01:33:22;;;;;;;21.80;4.47;;;8.50;99.90;;;;;;5079972;27;37652;-79
2022/02/18 01:35:49;;;;;;;24.73;3.97;;;8.50;99.90;;;;;;5077063;27;39121;-79
2022/02/18 01:38:15;;;;;;;23.90;4.33;;;8.50;99.90;;;;;;5078962;27;38454;-78
2022/02/18 01:40:41;;;;;;;32.83;4.40;;;8.40;99.90;;;;;;5081196;28;39012;-79
2022/02/18 01:43:07;;;;;;;24.73;4.83;;;8.50;99.90;;;;;;5078971;27;38824;-78
2022/02/18 01:45:34;;;;;;;25.57;3.70;;;8.50;99.90;;;;;;5082565;27;38557;-78
2022/02/18 01:48:00;;;;;;;28.93;4.43;;;8.40;99.90;;;;;;5084410;27;39837;-78
2022/02/18 01:50:26;;;;;;;29.77;4.37;;;8.40;99.90;;;;;;5083564;27;38039;-78
2022/02/18 01:52:54;;;;;;;25.50;3.90;;;8.40;99.90;;;;;;5084910;27;39390;-79
2022/02/18 01:55:22;;;;;;;24.97;4.37;;;8.40;99.90;;;;;;5077791;27;36234;-78
2022/02/18 01:57:52;;;;;;;27.40;4.13;;;8.40;99.90;;;;;;5077702;27;36792;-79
2022/02/18 02:00:21;;;;;;;24.10;4.57;;;8.30;99.90;;;;;;5079076;27;37100;-78
2022/02/18 02:02:48;;;;;;;32.50;4.77;;;8.30;99.90;;;;;;5077788;28;39487;-77
2022/02/18 02:05:14;;;;;;;28.40;5.27;;;8.30;99.90;;;;;;5080109;27;38161;-78
2022/02/18 02:07:42;;;;;;;30.53;5.00;;;8.30;99.90;;;;;;5086357;27;36984;-79
2022/02/18 02:10:11;;;;;;;32.97;6.03;;;8.30;99.90;;;;;;5082347;27;39294;-78
2022/02/18 02:12:53;;;;;;;37.17;5.63;;;8.30;99.90;;;;;;5082600;27;37250;-79
2022/02/18 02:15:22;;;;;;;34.97;5.87;;;8.40;99.90;;;;;;5092284;27;38295;-78
2022/02/18 02:17:49;;;;;;;33.20;5.30;;;8.40;99.90;;;;;;5088372;27;39150;-79
2022/02/18 02:20:17;;;;;;;41.20;5.53;;;8.40;99.90;;;;;;5085272;27;36214;-79
2022/02/18 02:22:43;;;;;;;33.93;5.43;;;8.40;99.90;;;;;;5106961;27;39068;-79
2022/02/18 02:25:09;;;;;;;33.30;7.00;;;8.40;99.90;;;;;;5084289;27;38705;-79
2022/02/18 02:27:36;;;;;;;34.50;6.87;;;8.40;99.90;;;;;;5080731;27;38481;-79
2022/02/18 02:30:04;;;;;;;40.80;6.57;;;8.40;99.90;;;;;;5080477;27;39248;-78
2022/02/18 02:32:30;;;;;;;35.83;5.93;;;8.40;99.90;;;;;;5081192;27;36707;-79
2022/02/18 02:34:56;;;;;;;41.90;6.50;;;8.30;99.90;;;;;;5090022;27;39210;-79
2022/02/18 02:37:22;;;;;;;35.50;6.47;;;8.30;99.90;;;;;;5080011;27;38959;-78
2022/02/18 02:39:48;;;;;;;36.00;5.63;;;8.30;99.90;;;;;;5078882;27;37588;-78
2022/02/18 02:42:15;;;;;;;40.17;6.73;;;8.20;99.90;;;;;;5068620;27;38463;-79
2022/02/18 02:44:41;;;;;;;43.67;6.87;;;8.20;99.90;;;;;;5077846;27;38078;-79
2022/02/18 02:47:08;;;;;;;39.77;5.93;;;8.20;99.90;;;;;;5078888;27;39192;-78
2022/02/18 02:49:34;;;;;;;44.90;6.47;;;8.20;99.90;;;;;;5075571;27;38126;-78
2022/02/18 02:52:00;;;;;;;41.07;7.33;;;8.10;99.90;;;;;;5078511;27;40000;-78
2022/02/18 02:54:26;;;;;;;48.87;8.17;;;8.10;99.90;;;;;;5078406;27;38297;-79
2022/02/18 02:56:52;;;;;;;40.30;6.00;;;8.10;99.90;;;;;;5079083;27;39520;-78
2022/02/18 02:59:19;;;;;;;47.50;6.83;;;8.10;99.90;;;;;;5077765;27;37473;-79
2022/02/18 03:01:45;;;;;;;52.40;8.10;;;8.10;99.90;;;;;;5082086;27;38254;-79
2022/02/18 03:04:11;;;;;;;49.47;8.37;;;8.10;99.90;;;;;;5076647;27;38700;-79
2022/02/18 03:06:37;;;;;;;44.97;7.50;;;8.20;99.90;;;;;;5090892;27;39365;-79
2022/02/18 03:09:09;;;;;;;45.37;6.77;;;8.20;99.90;;;;;;5087138;27;37679;-78
2022/02/18 03:11:35;;;;;;;49.33;7.30;;;8.20;99.90;;;;;;5078476;27;40764;-80
2022/02/18 03:14:03;;;;;;;50.03;7.07;;;8.20;99.90;;;;;;5087109;27;39629;-79
2022/02/18 03:16:29;;;;;;;48.70;7.00;;;8.20;99.90;;;;;;5081865;27;48927;-79
2022/02/18 03:18:55;;;;;;;57.67;8.60;;;8.20;99.90;;;;;;5084699;27;38023;-79
2022/02/18 03:21:21;;;;;;;49.73;9.20;;;8.20;99.90;;;;;;5087880;27;38936;-80
2022/02/18 03:23:47;;;;;;;66.83;8.57;;;8.20;99.90;;;;;;5081040;27;39425;-79
2022/02/18 03:26:15;;;;;;;51.27;8.23;;;8.10;99.90;;;;;;5085048;27;38685;-79
2022/02/18 03:28:42;;;;;;;51.03;7.57;;;8.20;99.90;;;;;;5084741;27;38507;-79
2022/02/18 03:31:09;;;;;;;56.80;8.37;;;8.10;99.90;;;;;;5086116;27;39599;-80
2022/02/18 03:33:39;;;;;;;58.57;8.93;;;8.20;99.90;;;;;;5090754;27;38194;-80
2022/02/18 03:36:06;;;;;;;52.10;9.13;;;8.10;99.90;;;;;;5088703;27;39256;-81
2022/02/18 03:38:34;;;;;;;51.17;8.10;;;8.20;99.90;;;;;;5086174;27;38243;-79
2022/02/18 03:41:01;;;;;;;56.27;8.53;;;8.20;99.90;;;;;;5080739;28;37517;-80
2022/02/18 03:43:27;;;;;;;50.03;7.50;;;8.20;99.90;;;;;;5087963;28;47095;-80
2022/02/18 03:45:53;;;;;;;55.90;9.47;;;8.30;99.90;;;;;;5083725;27;38385;-80
2022/02/18 03:48:19;;;;;;;49.07;7.83;;;8.30;99.90;;;;;;5085502;27;36294;-80
2022/02/18 03:50:45;;;;;;;49.80;7.43;;;8.40;99.90;;;;;;5096223;27;38814;-80
2022/02/18 03:53:14;;;;;;;56.37;9.33;;;8.40;99.90;;;;;;5087512;27;38509;-79
2022/02/18 03:55:41;;;;;;;63.33;9.00;;;8.40;99.90;;;;;;5081730;27;39386;-80
2022/02/18 03:58:07;;;;;;;64.90;9.13;;;8.40;99.90;;;;;;5080979;27;36685;-80
2022/02/18 04:00:34;;;;;;;45.27;6.80;;;8.40;99.90;;;;;;5087244;27;38871;-79
2022/02/18 04:03:00;;;;;;;46.70;7.57;;;8.40;99.90;;;;;;5091332;27;36264;-80
2022/02/18 04:05:28;;;;;;;43.40;8.00;;;8.50;99.90;;;;;;5084833;27;40638;-79
2022/02/18 04:07:54;;;;;;;56.53;6.97;;;8.50;99.90;;;;;;5086329;27;37845;-79
2022/02/18 04:10:20;;;;;;;45.70;7.43;;;8.50;99.90;;;;;;5088612;27;38541;-81
2022/02/18 04:12:46;;;;;;;41.67;6.50;;;8.60;99.90;;;;;;5082628;27;37281;-80
2022/02/18 04:15:12;;;;;;;46.47;7.53;;;8.60;99.90;;;;;;5093304;27;38788;-81
2022/02/18 04:17:38;;;;;;;43.17;7.07;;;8.60;99.90;;;;;;5087744;27;36124;-81
2022/02/18 04:20:05;;;;;;;37.67;6.43;;;8.60;99.90;;;;;;5081732;27;36671;-79
2022/02/18 04:22:31;;;;;;;40.90;6.37;;;8.60;99.90;;;;;;5082479;27;38065;-80
2022/02/18 04:24:57;;;;;;;42.43;6.20;;;8.60;99.90;;;;;;5083508;27;36974;-80
2022/02/18 04:27:30;;;;;;;40.03;6.60;;;8.60;99.90;;;;;;5089754;27;36862;-80
2022/02/18 04:29:56;;;;;;;43.10;6.43;;;8.60;99.90;;;;;;5081043;28;38236;-81
2022/02/18 04:32:22;;;;;;;47.03;8.47;;;8.50;99.90;;;;;;5079697;27;37174;-81
2022/02/18 04:34:48;;;;;;;46.77;7.67;;;8.50;99.90;;;;;;5082889;27;38840;-81
2022/02/18 04:37:14;;;;;;;57.73;8.27;;;8.50;99.90;;;;;;5086939;27;38875;-80
2022/02/18 04:39:40;;;;;;;47.40;8.27;;;8.50;99.90;;;;;;5115845;27;38426;-80
2022/02/18 04:42:07;;;;;;;44.40;6.97;;;8.50;99.90;;;;;;5093251;27;40341;-80
2022/02/18 04:44:33;;;;;;;43.60;7.93;;;8.40;99.90;;;;;;5082182;27;41079;-81
2022/02/18 04:46:59;;;;;;;39.97;7.37;;;8.40;99.90;;;;;;5086062;27;37987;-82
2022/02/18 04:49:25;;;;;;;37.67;5.97;;;8.40;99.90;;;;;;5094779;27;40066;-80
2022/02/18 04:51:53;;;;;;;46.80;8.03;;;8.40;99.90;;;;;;5085686;27;39059;-80
2022/02/18 04:54:19;;;;;;;45.53;6.83;;;8.40;99.90;;;;;;5090118;27;37727;-79
2022/02/18 04:56:45;;;;;;;46.17;7.93;;;8.40;99.90;;;;;;5085520;27;37185;-79
2022/02/18 04:59:12;;;;;;;39.43;7.00;;;8.40;99.90;;;;;;5088527;27;38943;-80
2022/02/18 05:01:39;;;;;;;42.00;6.63;;;8.40;99.90;;;;;;5094883;27;38542;-80
2022/02/18 05:04:05;;;;;;;45.50;6.43;;;8.40;99.90;;;;;;5091044;27;39204;-79
2022/02/18 05:06:31;;;;;;;43.07;6.23;;;8.40;99.90;;;;;;5091991;27;37715;-80
2022/02/18 05:08:57;;;;;;;41.80;6.00;;;8.50;99.90;;;;;;5097642;27;38654;-81
2022/02/18 05:11:23;;;;;;;46.70;6.87;;;8.50;99.90;;;;;;5085427;27;39838;-79
2022/02/18 05:13:50;;;;;;;42.00;6.77;;;8.50;99.90;;;;;;5092913;27;37815;-80
2022/02/18 05:16:17;;;;;;;44.23;5.93;;;8.50;99.90;;;;;;5094253;27;37458;-80
2022/02/18 05:18:43;;;;;;;39.07;6.10;;;8.50;99.90;;;;;;5098494;27;40044;-80
2022/02/18 05:21:09;;;;;;;43.80;6.20;;;8.40;99.90;;;;;;5091686;27;38025;-80
2022/02/18 05:23:35;;;;;;;41.50;5.87;;;8.40;99.90;;;;;;5090618;27;37801;-79
2022/02/18 05:26:01;;;;;;;40.97;6.40;;;8.30;99.90;;;;;;5098997;27;37263;-80
2022/02/18 05:28:27;;;;;;;43.20;5.53;;;8.20;99.90;;;;;;5090448;28;38119;-80
2022/02/18 05:30:53;;;;;;;37.13;6.73;;;8.20;99.90;;;;;;5090396;27;38957;-80
2022/02/18 05:33:19;;;;;;;40.83;7.03;;;8.20;99.90;;;;;;5091697;27;38509;-79
2022/02/18 05:35:45;;;;;;;43.93;6.40;;;8.20;99.90;;;;;;5096237;27;38547;-80
2022/02/18 05:38:12;;;;;;;37.97;5.50;;;8.20;99.90;;;;;;5090837;27;38897;-80
2022/02/18 05:40:38;;;;;;;37.60;4.87;;;8.20;99.90;;;;;;5094871;27;39093;-79
2022/02/18 05:43:04;;;;;;;38.80;6.07;;;8.20;99.90;;;;;;5097876;27;39273;-79
2022/02/18 05:45:30;;;;;;;35.90;5.23;;;8.30;99.90;;;;;;5105641;27;37444;-80
2022/02/18 05:47:56;;;;;;;38.50;7.00;;;8.30;99.90;;;;;;5093845;27;39911;-81
2022/02/18 05:50:23;;;;;;;49.03;7.63;;;8.20;99.90;;;;;;5092164;27;37835;-79
2022/02/18 05:52:49;;;;;;;37.57;6.30;;;8.20;99.90;;;;;;5101027;27;39501;-79
2022/02/18 05:55:15;;;;;;;48.73;8.50;;;8.10;99.90;;;;;;5105487;27;37121;-81
2022/02/18 05:57:41;;;;;;;39.10;6.87;;;8.10;99.90;;;;;;5112560;27;38941;-80
2022/02/18 06:00:08;;;;;;;37.33;6.37;;;8.00;99.90;;;;;;5081704;28;39139;-79
2022/02/18 06:02:35;;;;;;;45.17;7.90;;;7.80;99.90;;;;;;5071112;28;40242;-80
2022/02/18 06:05:03;;;;;;;39.50;7.53;;;7.80;99.90;;;;;;5101743;28;37837;-80
2022/02/18 06:07:29;;;;;;;45.37;7.30;;;7.80;99.90;;;;;;5095579;27;47333;-81
2022/02/18 06:09:55;;;;;;;49.57;8.03;;;7.70;99.90;;;;;;5100926;27;40322;-81
2022/02/18 06:12:21;;;;;;;48.27;8.30;;;7.70;99.90;;;;;;5098992;27;40171;-80
2022/02/18 06:14:50;;;;;;;45.23;7.87;;;7.70;99.90;;;;;;5124551;27;37607;-80
2022/02/18 06:17:20;;;;;;;52.60;8.03;;;7.70;99.90;;;;;;5095285;27;40930;-80
2022/02/18 06:19:47;;;;;;;52.17;9.50;;;7.70;99.90;;;;;;5105181;27;39309;-80
2022/02/18 06:22:14;;;;;;;56.10;9.80;;;7.70;99.90;;;;;;5120203;27;38888;-82
2022/02/18 06:24:42;;;;;;;53.73;9.23;;;7.70;99.90;;;;;;5111465;27;37337;-80
2022/02/18 06:27:08;;;;;;;49.77;10.47;;;7.70;99.90;;;;;;5108627;27;39561;-80
2022/02/18 06:29:34;;;;;;;47.77;10.63;;;7.70;99.90;;;;;;5096680;27;39790;-82
2022/02/18 06:32:08;;;;;;;60.90;11.17;;;7.70;99.90;;;;;;5101532;27;39783;-80
2022/02/18 06:34:34;;;;;;;41.97;11.23;;;7.70;99.90;;;;;;5112313;27;47645;-79
2022/02/18 06:37:01;;;;;;;43.63;11.40;;;7.80;99.90;;;;;;5109456;27;39491;-80
2022/02/18 06:39:27;;;;;;;47.43;11.73;;;7.80;99.90;;;;;;5102423;27;46832;-81
2022/02/18 06:41:53;;;;;;;56.70;12.17;;;7.80;99.90;;;;;;5107108;27;38040;-81
2022/02/18 06:44:20;;;;;;;44.77;12.57;;;7.90;99.90;;;;;;5098116;27;37195;-80
2022/02/18 06:46:47;;;;;;;44.40;12.20;;;7.90;99.90;;;;;;5094816;27;36945;-81
2022/02/18 06:49:17;;;;;;;51.57;13.27;;;7.90;99.90;;;;;;5105434;27;38967;-81
2022/02/18 06:51:44;;;;;;;31.00;11.10;;;8.00;99.90;;;;;;5098474;27;38437;-80
2022/02/18 06:54:12;;;;;;;42.90;11.60;;;8.00;99.90;;;;;;5100761;27;36977;-81
2022/02/18 06:56:40;;;;;;;36.10;11.50;;;8.20;99.90;;;;;;5132405;27;38270;-80
2022/02/18 06:59:06;;;;;;;44.97;11.77;;;8.20;99.90;;;;;;5119278;27;38226;-81
2022/02/18 07:01:32;;;;;;;38.43;11.67;;;8.30;99.90;;;;;;5080443;27;37502;-79
2022/02/18 07:03:59;;;;;;;40.43;11.93;;;8.30;99.90;;;;;;5109375;27;37076;-81
2022/02/18 07:06:25;;;;;;;39.73;10.20;;;8.40;99.90;;;;;;5110868;27;38415;-81
2022/02/18 07:08:51;;;;;;;36.13;9.90;;;8.50;99.90;;;;;;5114144;27;39410;-81
2022/02/18 07:11:17;;;;;;;31.30;10.20;;;8.60;99.90;;;;;;5099095;27;37904;-80
2022/02/18 07:13:43;;;;;;;29.83;9.93;;;8.60;99.90;;;;;;5102698;27;37072;-81
2022/02/18 07:16:10;;;;;;;31.53;8.63;;;8.70;99.90;;;;;;5092591;27;38278;-80
2022/02/18 07:18:36;;;;;;;29.83;8.63;;;8.70;99.90;;;;;;5098831;27;37766;-80
2022/02/18 07:21:07;;;;;;;29.17;8.80;;;8.90;99.90;;;;;;5100693;27;37002;-81
2022/02/18 07:23:34;;;;;;;28.03;8.10;;;8.90;99.90;;;;;;5095890;27;36303;-80
2022/02/18 07:26:01;;;;;;;35.97;7.90;;;8.90;99.90;;;;;;5117073;27;39689;-80
2022/02/18 07:28:30;;;;;;;31.17;9.53;;;8.90;99.90;;;;;;5111577;27;49006;-80
2022/02/18 07:30:58;;;;;;;32.47;8.73;;;9.00;99.90;;;;;;5107359;27;38498;-80
2022/02/18 07:33:24;;;;;;;28.53;8.93;;;9.10;99.90;;;;;;5103828;27;37640;-79
2022/02/18 07:35:52;;;;;;;43.03;10.03;;;9.00;99.90;;;;;;5102954;28;38416;-80
2022/02/18 07:38:19;;;;;;;25.80;8.70;;;9.10;99.90;;;;;;5124087;27;37196;-79
2022/02/18 07:40:45;;;;;;;25.40;8.37;;;9.10;99.90;;;;;;5109415;27;38055;-80
2022/02/18 07:43:11;;;;;;;29.57;9.27;;;9.20;99.90;;;;;;5110837;27;37302;-82
2022/02/18 07:45:38;;;;;;;29.17;8.90;;;9.20;99.90;;;;;;5108598;27;40963;-81
2022/02/18 07:48:04;;;;;;;35.27;8.40;;;9.20;99.90;;;;;;5088418;27;38045;-80
2022/02/18 07:50:30;;;;;;;34.50;10.37;;;9.20;99.90;;;;;;5082984;28;38969;-81
2022/02/18 07:52:56;;;;;;;26.07;8.13;;;9.30;99.90;;;;;;5092750;27;35851;-81
2022/02/18 07:55:28;;;;;;;32.87;9.33;;;9.30;99.90;;;;;;5112143;27;38132;-81
2022/02/18 07:58:00;;;;;;;25.38;8.10;;;9.30;99.90;;;;;;5091514;28;37703;-81
2022/02/18 08:00:32;;;;;;;23.80;8.57;;;9.30;99.90;;;;;;5098380;28;37648;-79
2022/02/18 08:03:00;;;;;;;28.50;9.90;;;9.30;99.90;;;;;;5083581;28;36744;-81
2022/02/18 08:05:28;;;;;;;28.87;8.47;;;9.40;99.90;;;;;;5090940;27;38913;-81
2022/02/18 08:07:57;;;;;;;25.27;8.77;;;9.40;99.90;;;;;;5090799;28;37404;-82
2022/02/18 08:10:25;;;;;;;29.83;8.07;;;9.40;99.90;;;;;;5115674;27;38163;-82
2022/02/18 08:12:53;;;;;;;28.90;8.70;;;9.40;99.90;;;;;;5103898;28;36414;-82
2022/02/18 08:15:37;;;;;;;24.97;7.60;;;9.50;99.90;;;;;;5126804;27;39131;-82
2022/02/18 08:18:05;;;;;;;22.47;7.70;;;9.50;99.90;;;;;;5105532;27;38617;-82
2022/02/18 08:20:32;;;;;;;28.67;8.47;;;9.50;99.90;;;;;;5098936;28;38279;-81
2022/02/18 08:22:58;;;;;;;23.60;7.13;;;9.60;99.90;;;;;;5119612;27;37065;-81
2022/02/18 08:25:24;;;;;;;24.77;8.10;;;9.60;99.90;;;;;;5104529;22;38068;-81
2022/02/18 08:27:50;;;;;;;25.63;7.30;;;9.60;99.90;;;;;;5071194;28;39156;-79
2022/02/18 08:30:16;;;;;;;19.97;7.47;;;9.70;99.90;;;;;;5089503;28;37257;-83
2022/02/18 08:32:42;;;;;;;24.93;7.37;;;9.70;99.90;;;;;;5045051;28;36183;-81
2022/02/18 08:35:09;;;;;;;19.20;6.40;;;9.80;99.90;;;;;;5067433;28;40090;-82
2022/02/18 08:37:35;;;;;;;17.83;6.47;;;9.90;99.90;;;;;;5075989;28;37827;-81
2022/02/18 08:40:01;;;;;;;18.97;6.00;;;9.90;99.90;;;;;;5040450;28;37261;-81
2022/02/18 08:42:27;;;;;;;17.43;6.23;;;10.00;99.90;;;;;;5040685;28;36118;-81
2022/02/18 08:44:53;;;;;;;19.00;6.23;;;10.10;99.90;;;;;;5041952;28;39752;-82
2022/02/18 08:47:20;;;;;;;15.30;5.50;;;10.10;99.90;;;;;;5042430;28;38498;-82
2022/02/18 08:49:46;;;;;;;17.33;5.40;;;10.20;99.90;;;;;;5071744;28;38663;-81
2022/02/18 08:52:12;;;;;;;14.90;4.60;;;10.30;99.90;;;;;;5069178;28;36200;-82
2022/02/18 08:54:39;;;;;;;12.60;4.47;;;10.30;99.90;;;;;;5078287;28;37690;-81
2022/02/18 08:57:05;;;;;;;15.30;4.83;;;10.40;99.90;;;;;;5082255;28;37935;-82
2022/02/18 08:59:31;;;;;;;9.37;3.50;;;10.50;99.90;;;;;;5074268;28;38027;-81
2022/02/18 09:01:59;;;;;;;12.63;3.90;;;10.60;99.90;;;;;;5070044;28;38283;-81
2022/02/18 09:04:25;;;;;;;12.60;3.50;;;10.60;99.90;;;;;;5071031;28;38889;-79
2022/02/18 09:06:51;;;;;;;7.83;3.10;;;10.70;99.90;;;;;;5071666;28;39222;-80
2022/02/18 09:09:17;;;;;;;8.20;3.27;;;10.70;99.90;;;;;;5070713;28;38335;-79
2022/02/18 09:11:44;;;;;;;10.15;3.20;;;10.80;99.90;;;;;;5080613;28;36705;-80
2022/02/18 09:14:10;;;;;;;5.83;2.53;;;10.80;99.90;;;;;;5083245;28;40569;-81
2022/02/18 09:16:36;;;;;;;5.40;2.40;;;10.90;99.90;;;;;;5059655;28;38708;-77
2022/02/18 09:19:02;;;;;;;9.10;2.50;;;11.00;99.90;;;;;;5072182;28;37114;-77
2022/02/18 09:21:28;;;;;;;8.43;2.47;;;11.10;99.90;;;;;;5065310;28;47992;-82
2022/02/18 09:23:54;;;;;;;3.90;2.27;;;11.20;99.90;;;;;;5060832;28;38871;-78
2022/02/18 09:26:23;;;;;;;9.07;2.37;;;11.30;99.90;;;;;;5076218;28;37399;-79
2022/02/18 09:28:49;;;;;;;8.70;2.10;;;11.30;99.90;;;;;;5046214;28;37057;-80
2022/02/18 09:31:17;;;;;;;5.90;2.67;;;11.40;99.90;;;;;;5067184;28;38356;-79
2022/02/18 09:33:43;;;;;;;3.40;1.83;;;11.30;99.90;;;;;;5086108;28;39335;-79
2022/02/18 09:36:09;;;;;;;4.47;2.43;;;11.40;99.90;;;;;;5085737;27;38182;-80
2022/02/18 09:38:36;;;;;;;8.27;1.70;;;11.40;99.90;;;;;;5061323;28;39128;-77
2022/02/18 09:41:08;;;;;;;4.38;2.33;;;11.50;99.90;;;;;;5067738;28;37749;-79
2022/02/18 09:43:36;;;;;;;6.93;2.67;;;11.50;99.90;;;;;;5086463;28;36072;-79
2022/02/18 09:46:03;;;;;;;5.20;1.83;;;11.40;99.90;;;;;;5065917;28;38225;-80
2022/02/18 09:48:30;;;;;;;6.33;1.93;;;11.40;99.90;;;;;;5071557;28;39393;-79
2022/02/18 09:50:59;;;;;;;9.13;2.10;;;11.40;99.90;;;;;;5082269;28;36282;-80
2022/02/18 09:53:27;;;;;;;3.95;1.70;;;11.50;99.90;;;;;;5064630;28;20072;-81
2022/02/18 09:55:55;;;;;;;5.10;2.00;;;11.50;99.90;;;;;;5065944;28;38108;-80
2022/02/18 09:58:22;;;;;;;7.00;1.65;;;11.50;99.90;;;;;;5086627;28;39093;-79
2022/02/18 10:00:50;;;;;;;1.98;1.40;;;11.50;99.90;;;;;;5069805;28;36783;-79
2022/02/18 10:03:16;;;;;;;5.15;2.08;;;11.60;99.90;;;;;;5081932;28;38829;-77
2022/02/18 10:05:42;;;;;;;4.70;1.93;;;11.60;99.90;;;;;;5067859;28;39858;-79
2022/02/18 10:08:15;;;;;;;5.17;1.53;;;11.60;99.90;;;;;;5081117;28;38234;-80
2022/02/18 10:10:57;;;;;;;4.78;1.70;;;11.70;99.90;;;;;;5083089;28;36607;-80
2022/02/18 10:13:42;;;;;;;4.85;1.17;;;11.70;99.90;;;;;;5072618;28;37938;-79
2022/02/18 10:16:11;;;;;;;2.38;1.10;;;11.70;99.90;;;;;;5083761;28;38213;-81
2022/02/18 10:18:59;;;;;;;2.05;1.20;;;11.80;99.90;;;;;;5079499;28;37270;-80
2022/02/18 10:21:26;;;;;;;1.38;1.08;;;11.80;99.90;;;;;;5070434;28;37318;-80
2022/02/18 10:24:10;;;;;;;1.58;1.00;;;12.00;99.90;;;;;;5078201;28;37420;-80
2022/02/18 10:26:38;;;;;;;2.10;0.93;;;12.10;99.90;;;;;;5075028;28;48079;-78
2022/02/18 10:29:09;;;;;;;5.28;1.15;;;12.10;99.90;;;;;;5074978;28;38683;-80
2022/02/18 10:31:36;;;;;;;4.97;0.77;;;12.10;99.90;;;;;;5090566;28;48773;-80
2022/02/18 10:34:08;;;;;;;2.25;0.70;;;12.10;99.90;;;;;;5073241;28;39956;-80
2022/02/18 10:36:36;;;;;;;2.95;1.17;;;12.20;99.90;;;;;;5076391;28;39150;-81
2022/02/18 10:39:26;;;;;;;3.55;0.82;;;12.20;99.90;;;;;;5074614;28;39179;-79
2022/02/18 10:42:00;;;;;;;2.15;0.95;;;12.20;99.90;;;;;;5073226;28;37796;-79
2022/02/18 10:44:28;;;;;;;2.00;0.80;;;12.20;99.90;;;;;;5094189;28;37410;-78
2022/02/18 10:46:55;;;;;;;2.28;0.82;;;12.20;99.90;;;;;;5091333;28;36991;-80
2022/02/18 10:49:23;;;;;;;1.38;0.93;;;12.20;99.90;;;;;;5077646;28;38561;-79
2022/02/18 10:51:50;;;;;;;1.30;0.65;;;12.20;99.90;;;;;;5080015;28;35962;-78
2022/02/18 10:54:17;;;;;;;1.65;0.88;;;12.20;99.90;;;;;;5048832;28;37478;-79
2022/02/18 10:56:44;;;;;;;2.20;0.75;;;12.20;99.90;;;;;;5059151;28;39107;-80
2022/02/18 10:59:10;;;;;;;2.40;1.15;;;12.30;99.90;;;;;;5063760;28;38110;-78
2022/02/18 11:01:45;;;;;;;1.98;0.70;;;12.20;99.90;;;;;;5069962;28;36869;-77
2022/02/18 11:04:12;;;;;;;6.43;0.90;;;12.20;99.90;;;;;;5067294;28;37743;-79
2022/02/18 11:06:38;;;;;;;4.22;1.08;;;12.10;99.90;;;;;;5034652;28;38882;-79
2022/02/18 11:09:10;;;;;;;1.92;0.90;;;12.00;99.90;;;;;;5043263;28;39044;-78
2022/02/18 11:11:44;;;;;;;2.80;1.10;;;11.90;99.90;;;;;;5021991;28;37195;-79
2022/02/18 11:14:15;;;;;;;2.00;0.88;;;11.80;99.90;;;;;;5031832;28;38047;-77
2022/02/18 11:16:43;;;;;;;2.47;1.17;;;11.80;99.90;;;;;;5069385;28;39021;-78
2022/02/18 11:19:09;;;;;;;2.33;1.10;;;11.90;99.90;;;;;;5048408;28;37843;-79
2022/02/18 11:21:36;;;;;;;2.83;0.85;;;11.80;99.90;;;;;;5072818;28;37958;-77
2022/02/18 11:24:04;;;;;;;8.60;1.67;;;11.70;99.90;;;;;;5063779;28;39111;-76
2022/02/18 11:26:31;;;;;;;18.25;3.55;;;11.60;99.90;;;;;;5077265;28;39142;-78
2022/02/18 11:28:58;;;;;;;18.87;2.90;;;11.00;99.90;;;;;;5069621;28;38567;-77
2022/02/18 11:31:26;;;;;;;18.53;2.97;;;10.50;99.90;;;;;;5069990;28;37509;-79
2022/02/18 11:34:23;;;;;;;23.83;3.27;;;10.30;99.90;;;;;;5063814;28;39409;-81
2022/02/18 11:37:16;;;;;;;19.70;2.67;;;10.20;99.90;;;;;;5054064;28;47040;-80
2022/02/18 11:40:10;;;;;;;24.23;3.70;;;10.30;99.90;;;;;;5094488;28;47366;-80
2022/02/18 11:43:30;;;;;;;22.80;3.10;;;10.40;99.90;;;;;;5068453;28;49052;-81
2022/02/18 11:46:01;;;;;;;14.80;2.70;;;10.60;99.90;;;;;;5048898;28;48691;-82
2022/02/18 11:48:49;;;;;;;18.92;3.70;;;10.70;99.90;;;;;;5056601;28;49051;-82
2022/02/18 11:51:25;;;;;;;20.83;3.50;;;10.60;99.90;;;;;;5057028;28;38208;-81
2022/02/18 11:53:52;;;;;;;20.73;3.47;;;10.60;99.90;;;;;;5030550;28;36597;-81
2022/02/18 11:56:42;;;;;;;23.80;4.03;;;10.60;99.90;;;;;;5058337;28;39105;-81
2022/02/18 11:59:10;;;;;;;32.27;4.50;;;10.60;99.90;;;;;;5261787;22;38289;-80
2022/02/18 12:01:58;;;;;;;22.33;3.27;;;10.60;99.90;;;;;;5102944;28;37544;-83
2022/02/18 12:04:27;;;;;;;23.67;4.00;;;10.60;99.90;;;;;;5098609;27;37836;-80
2022/02/18 12:07:13;;;;;;;26.77;4.20;;;10.70;99.90;;;;;;5097212;28;39198;-80
2022/02/18 12:09:49;;;;;;;21.73;3.87;;;10.70;99.90;;;;;;5095149;28;46965;-81
2022/02/18 12:12:39;;;;;;;18.08;3.13;;;10.70;99.90;;;;;;5100531;27;38392;-81
2022/02/18 12:15:14;;;;;;;17.17;3.53;;;10.70;99.90;;;;;;5076786;27;36229;-80
2022/02/18 12:17:48;;;;;;;16.88;3.20;;;10.70;99.90;;;;;;5113551;27;39094;-82
2022/02/18 12:20:28;;;;;;;17.63;2.33;;;10.80;99.90;;;;;;5121467;27;37084;-80
2022/02/18 12:23:28;;;;;;;15.13;2.33;;;10.80;99.90;;;;;;5114947;27;38329;-80
2022/02/18 12:26:19;;;;;;;16.45;2.80;;;10.70;99.90;;;;;;5108267;27;49016;-81
2022/02/18 12:28:46;;;;;;;13.07;1.98;;;10.80;99.90;;;;;;5105808;28;47577;-79
2022/02/18 12:31:14;;;;;;;13.03;2.13;;;10.80;99.90;;;;;;5098841;27;39264;-80
2022/02/18 12:33:40;;;;;;;18.57;2.30;;;10.80;99.90;;;;;;5098388;28;38052;-80
2022/02/18 12:36:16;;;;;;;14.83;3.03;;;10.70;99.90;;;;;;5085632;28;40242;-81
2022/02/18 12:38:45;;;;;;;18.20;3.53;;;10.70;99.90;;;;;;5103927;28;39012;-81
2022/02/18 12:41:37;;;;;;;27.53;3.33;;;10.70;99.90;;;;;;5109104;27;38302;-80
2022/02/18 12:44:03;;;;;;;25.20;4.57;;;10.70;99.90;;;;;;5057384;28;37220;-81
2022/02/18 12:46:39;;;;;;;33.20;4.83;;;10.60;99.90;;;;;;5127939;27;37872;-80
2022/02/18 12:49:07;;;;;;;19.70;3.50;;;10.70;99.90;;;;;;5106129;27;39085;-80
2022/02/18 12:51:34;;;;;;;28.93;4.90;;;10.70;99.90;;;;;;5097964;28;37722;-80